createdAt,value
2017-05-09T00:01:06.389Z,1.06
2017-05-09T00:03:33.098Z,0.80
2017-05-09T00:05:59.822Z,0.60
2017-05-09T00:08:26.543Z,1.10
2017-05-09T00:10:53.313Z,0.60
2017-05-09T00:13:20.089Z,1.88
2017-05-09T00:15:46.798Z,0.50
2017-05-09T00:18:13.503Z,0.74
2017-05-09T00:20:40.222Z,0.82
2017-05-09T00:23:06.939Z,0.70
2017-05-09T00:25:33.648Z,0.60
2017-05-09T00:28:00.364Z,0.60
2017-05-09T00:30:27.125Z,1.07
2017-05-09T00:32:53.837Z,0.70
2017-05-09T00:35:20.603Z,0.50
2017-05-09T00:37:47.315Z,3.28
2017-05-09T00:40:14.035Z,0.70
2017-05-09T00:42:40.758Z,0.50
2017-05-09T00:45:07.468Z,0.74
2017-05-09T00:47:34.182Z,0.50
2017-05-09T00:50:00.951Z,0.50
2017-05-09T00:52:27.662Z,0.54
2017-05-09T00:54:54.378Z,0.50
2017-05-09T00:57:21.096Z,0.50
2017-05-09T00:59:47.850Z,0.58
2017-05-09T01:02:14.562Z,0.50
2017-05-09T01:04:41.295Z,0.60
2017-05-09T01:07:08.021Z,1.14
2017-05-09T01:09:34.740Z,0.50
2017-05-09T01:12:01.473Z,0.66
2017-05-09T01:14:28.194Z,0.70
2017-05-09T01:16:54.912Z,0.64
2017-05-09T01:19:21.630Z,0.50
2017-05-09T01:21:48.336Z,0.40
2017-05-09T01:24:15.045Z,1.38
2017-05-09T01:26:41.803Z,0.52
2017-05-09T01:29:08.517Z,4.52
2017-05-09T01:31:35.234Z,0.56
2017-05-09T01:34:01.961Z,0.50
2017-05-09T01:36:28.707Z,0.64
2017-05-09T01:38:55.948Z,0.56
2017-05-09T01:41:22.684Z,0.50
2017-05-09T01:43:49.419Z,0.50
2017-05-09T01:46:16.128Z,0.40
2017-05-09T01:48:42.851Z,0.50
2017-05-09T01:51:09.569Z,0.60
2017-05-09T01:53:36.287Z,0.50
2017-05-09T01:56:03.094Z,0.90
2017-05-09T01:58:29.810Z,0.50
2017-05-09T02:00:56.522Z,0.70
2017-05-09T02:03:23.235Z,0.62
2017-05-09T02:05:49.944Z,0.76
2017-05-09T02:08:16.653Z,0.62
2017-05-09T02:10:43.845Z,1.10
2017-05-09T02:13:10.561Z,0.68
2017-05-09T02:15:37.275Z,2.06
2017-05-09T02:18:04.005Z,0.50
2017-05-09T02:20:30.761Z,0.60
2017-05-09T02:22:57.498Z,0.50
2017-05-09T02:25:24.217Z,0.50
2017-05-09T02:27:50.928Z,0.80
2017-05-09T02:30:17.635Z,1.44
2017-05-09T02:32:44.396Z,0.52
2017-05-09T02:35:11.119Z,0.70
2017-05-09T02:37:37.845Z,0.76
2017-05-09T02:40:04.584Z,1.64
2017-05-09T02:42:31.301Z,0.74
2017-05-09T02:44:58.017Z,0.58
2017-05-09T02:47:24.776Z,0.60
2017-05-09T02:49:51.486Z,0.66
2017-05-09T02:52:18.198Z,0.74
2017-05-09T02:54:44.920Z,0.58
2017-05-09T02:57:11.634Z,0.50
2017-05-09T02:59:38.356Z,0.50
2017-05-09T03:02:05.123Z,0.50
2017-05-09T03:04:31.841Z,0.62
2017-05-09T03:06:58.545Z,0.60
2017-05-09T03:09:25.302Z,1.22
2017-05-09T03:11:52.018Z,1.76
2017-05-09T03:14:18.729Z,1.20
2017-05-09T03:16:45.457Z,0.54
2017-05-09T03:19:12.168Z,0.50
2017-05-09T03:21:38.881Z,1.60
2017-05-09T03:24:05.600Z,0.74
2017-05-09T03:26:32.312Z,1.10
2017-05-09T03:28:59.025Z,0.50
2017-05-09T03:31:25.757Z,0.82
2017-05-09T03:33:52.469Z,0.74
2017-05-09T03:36:19.191Z,0.66
2017-05-09T03:38:45.906Z,0.60
2017-05-09T03:41:12.640Z,1.60
2017-05-09T03:43:39.350Z,0.58
2017-05-09T03:46:06.074Z,0.64
2017-05-09T03:48:32.782Z,0.50
2017-05-09T03:50:59.513Z,0.60
2017-05-09T03:53:26.269Z,0.50
2017-05-09T03:55:52.975Z,0.80
2017-05-09T03:58:19.685Z,0.56
2017-05-09T04:00:46.396Z,2.92
2017-05-09T04:03:13.111Z,1.32
2017-05-09T04:05:39.825Z,0.70
2017-05-09T04:08:06.540Z,2.34
2017-05-09T04:10:33.270Z,0.62
2017-05-09T04:12:59.985Z,0.68
2017-05-09T04:15:26.701Z,0.74
2017-05-09T04:17:53.417Z,0.50
2017-05-09T04:20:20.138Z,1.68
2017-05-09T04:22:46.905Z,1.78
2017-05-09T04:25:13.618Z,0.50
2017-05-09T04:27:40.342Z,1.44
2017-05-09T04:30:07.073Z,1.92
2017-05-09T04:32:33.792Z,1.48
2017-05-09T04:35:00.517Z,0.68
2017-05-09T04:37:27.246Z,0.52
2017-05-09T04:39:53.966Z,0.50
2017-05-09T04:42:20.675Z,0.70
2017-05-09T04:44:47.392Z,1.50
2017-05-09T04:47:14.102Z,0.50
2017-05-09T04:49:40.816Z,4.20
2017-05-09T04:52:10.593Z,1.48
2017-05-09T04:54:37.308Z,1.04
2017-05-09T04:57:04.026Z,0.60
2017-05-09T04:59:30.747Z,0.72
2017-05-09T05:01:57.464Z,1.66
2017-05-09T05:04:24.186Z,2.20
2017-05-09T05:06:50.941Z,0.70
2017-05-09T05:09:17.654Z,0.70
2017-05-09T05:11:44.374Z,0.82
2017-05-09T05:14:11.109Z,0.60
2017-05-09T05:16:37.821Z,0.60
2017-05-09T05:19:04.542Z,0.74
2017-05-09T05:21:31.266Z,0.90
2017-05-09T05:23:57.985Z,2.40
2017-05-09T05:26:24.703Z,8.06
2017-05-09T05:28:51.466Z,10.08
2017-05-09T05:31:18.186Z,20.74
2017-05-09T05:33:44.907Z,26.24
2017-05-09T05:36:11.685Z,14.00
2017-05-09T05:38:38.401Z,49.34
2017-05-09T05:41:05.131Z,27.00
2017-05-09T05:43:31.856Z,12.04
2017-05-09T05:45:58.581Z,5.24
2017-05-09T05:48:25.302Z,18.44
2017-05-09T05:50:52.031Z,11.72
2017-05-09T05:53:18.743Z,3.36
2017-05-09T05:55:45.477Z,6.02
2017-05-09T05:58:12.212Z,3.86
2017-05-09T06:00:38.918Z,0.82
2017-05-09T06:03:05.631Z,0.70
2017-05-09T06:05:32.360Z,2.34
2017-05-09T06:07:59.075Z,0.70
2017-05-09T06:10:25.806Z,0.70
2017-05-09T06:12:52.547Z,0.80
2017-05-09T06:15:19.252Z,1.06
2017-05-09T06:17:45.983Z,6.08
2017-05-09T06:20:12.710Z,3.04
2017-05-09T06:22:39.430Z,2.90
2017-05-09T06:25:06.155Z,1.60
2017-05-09T06:27:32.877Z,0.94
2017-05-09T06:29:59.593Z,18.30
2017-05-09T06:32:26.317Z,13.64
2017-05-09T06:34:53.046Z,9.32
2017-05-09T06:37:19.764Z,14.74
2017-05-09T06:39:46.491Z,66.06
2017-05-09T06:42:13.256Z,80.90
2017-05-09T06:44:39.973Z,29.04
2017-05-09T06:47:06.693Z,10.98
2017-05-09T06:49:33.421Z,1.04
2017-05-09T06:52:00.135Z,1.32
2017-05-09T06:54:26.878Z,6.28
2017-05-09T06:56:53.602Z,1.76
2017-05-09T06:59:20.310Z,1.30
2017-05-09T07:01:47.034Z,1.90
2017-05-09T07:04:13.751Z,4.70
2017-05-09T07:06:40.464Z,4.60
2017-05-09T07:09:07.183Z,1.30
2017-05-09T07:11:33.903Z,1.34
2017-05-09T07:14:00.631Z,0.80
2017-05-09T07:16:27.340Z,2.52
2017-05-09T07:18:54.050Z,0.78
2017-05-09T07:21:20.761Z,2.10
2017-05-09T07:23:47.486Z,0.78
2017-05-09T07:26:14.208Z,0.76
2017-05-09T07:28:40.921Z,2.58
2017-05-09T07:31:07.661Z,1.64
2017-05-09T07:33:34.428Z,2.42
2017-05-09T07:36:01.141Z,1.00
2017-05-09T07:38:27.867Z,0.62
2017-05-09T07:40:54.600Z,1.00
2017-05-09T07:43:21.312Z,0.80
2017-05-09T07:45:48.016Z,2.78
2017-05-09T07:48:14.744Z,0.60
2017-05-09T07:50:41.457Z,3.12
2017-05-09T07:53:08.171Z,1.24
2017-05-09T07:55:34.905Z,2.72
2017-05-09T07:58:01.646Z,1.12
2017-05-09T08:00:28.360Z,4.12
2017-05-09T08:02:55.077Z,3.24
2017-05-09T08:05:21.791Z,1.44
2017-05-09T08:07:48.523Z,1.58
2017-05-09T08:10:19.998Z,3.34
2017-05-09T08:12:46.918Z,1.06
2017-05-09T08:15:13.635Z,1.46
2017-05-09T08:17:40.350Z,1.36
2017-05-09T08:20:07.075Z,0.82
2017-05-09T08:22:33.792Z,1.46
2017-05-09T08:25:00.522Z,1.14
2017-05-09T08:27:27.254Z,0.80
2017-05-09T08:29:53.970Z,1.34
2017-05-09T08:32:20.694Z,1.76
2017-05-09T08:34:47.410Z,1.10
2017-05-09T08:37:14.130Z,3.78
2017-05-09T08:39:40.891Z,1.14
2017-05-09T08:42:07.605Z,1.42
2017-05-09T08:44:34.323Z,5.78
2017-05-09T08:47:01.050Z,3.40
2017-05-09T08:49:27.766Z,2.62
2017-05-09T08:51:54.485Z,0.64
2017-05-09T08:54:21.223Z,0.54
2017-05-09T08:56:47.941Z,1.62
2017-05-09T08:59:14.672Z,3.52
2017-05-09T09:01:41.428Z,7.94
2017-05-09T09:04:08.133Z,0.60
2017-05-09T09:06:34.846Z,2.76
2017-05-09T09:09:01.609Z,9.48
2017-05-09T09:11:28.329Z,1.54
2017-05-09T09:13:55.062Z,1.04
2017-05-09T09:16:21.852Z,0.86
2017-05-09T09:18:48.563Z,2.48
2017-05-09T09:21:15.281Z,1.48
2017-05-09T09:23:42.053Z,0.70
2017-05-09T09:26:08.771Z,2.50
2017-05-09T09:28:35.498Z,0.70
2017-05-09T09:31:02.226Z,0.64
2017-05-09T09:33:28.946Z,1.02
2017-05-09T09:35:55.673Z,2.52
2017-05-09T09:38:22.400Z,9.24
2017-05-09T09:40:50.596Z,7.74
2017-05-09T09:43:17.314Z,10.80
2017-05-09T09:45:44.062Z,1.82
2017-05-09T09:48:10.782Z,1.00
2017-05-09T09:50:37.497Z,0.80
2017-05-09T09:53:04.226Z,6.22
2017-05-09T09:55:30.930Z,0.60
2017-05-09T09:57:57.662Z,1.38
2017-05-09T10:00:24.380Z,0.60
2017-05-09T10:02:51.117Z,0.80
2017-05-09T10:05:17.829Z,0.70
2017-05-09T10:07:44.545Z,0.80
2017-05-09T10:10:11.330Z,0.70
2017-05-09T10:12:38.045Z,2.46
2017-05-09T10:15:04.769Z,1.04
2017-05-09T10:17:31.517Z,1.00
2017-05-09T10:19:58.229Z,1.98
2017-05-09T10:22:24.938Z,1.86
2017-05-09T10:24:51.669Z,1.10
2017-05-09T10:27:18.378Z,1.18
2017-05-09T10:29:45.280Z,1.34
2017-05-09T10:32:11.991Z,3.94
2017-05-09T10:34:38.731Z,1.64
2017-05-09T10:37:05.463Z,1.28
2017-05-09T10:39:32.169Z,2.28
2017-05-09T10:41:58.873Z,1.56
2017-05-09T10:44:25.605Z,1.84
2017-05-09T10:46:52.322Z,1.56
2017-05-09T10:49:19.025Z,1.74
2017-05-09T10:51:45.798Z,1.40
2017-05-09T10:54:12.505Z,5.74
2017-05-09T10:56:39.228Z,2.10
2017-05-09T10:59:05.959Z,3.32
2017-05-09T11:01:32.697Z,1.64
2017-05-09T11:03:59.433Z,1.84
2017-05-09T11:06:26.164Z,2.04
2017-05-09T11:08:52.880Z,2.18
2017-05-09T11:11:19.596Z,1.94
2017-05-09T11:13:46.397Z,1.62
2017-05-09T11:16:24.080Z,2.18
2017-05-09T11:18:50.831Z,1.86
2017-05-09T11:21:17.602Z,2.20
2017-05-09T11:23:44.373Z,1.88
2017-05-09T11:26:12.116Z,1.60
2017-05-09T11:28:38.926Z,1.34
2017-05-09T11:31:05.734Z,1.68
2017-05-09T11:33:32.598Z,1.28
2017-05-09T11:35:59.433Z,2.68
2017-05-09T11:38:26.155Z,2.20
2017-05-09T11:40:52.933Z,2.10
2017-05-09T11:43:19.708Z,2.18
2017-05-09T11:45:46.464Z,3.00
2017-05-09T11:48:13.221Z,2.08
2017-05-09T11:50:39.977Z,3.98
2017-05-09T11:53:06.731Z,2.58
2017-05-09T11:55:33.525Z,4.92
2017-05-09T11:58:00.296Z,3.96
2017-05-09T12:00:27.066Z,2.34
2017-05-09T12:02:53.817Z,2.86
2017-05-09T12:05:20.619Z,3.18
2017-05-09T12:07:47.406Z,3.16
2017-05-09T12:10:14.160Z,3.32
2017-05-09T12:12:40.920Z,3.34
2017-05-09T12:15:07.636Z,3.42
2017-05-09T12:17:34.446Z,2.58
2017-05-09T12:20:01.220Z,5.38
2017-05-09T12:22:28.034Z,2.74
2017-05-09T12:24:54.781Z,2.60
2017-05-09T12:27:21.513Z,2.00
2017-05-09T12:29:48.273Z,2.54
2017-05-09T12:32:15.108Z,2.50
2017-05-09T12:34:42.445Z,3.04
2017-05-09T12:37:09.277Z,2.40
2017-05-09T12:39:36.005Z,2.70
2017-05-09T12:42:02.737Z,2.72
2017-05-09T12:44:29.486Z,4.70
2017-05-09T12:46:56.262Z,2.78
2017-05-09T12:49:22.991Z,2.02
2017-05-09T12:51:49.760Z,2.12
2017-05-09T12:54:16.510Z,2.64
2017-05-09T12:56:43.238Z,9.82
2017-05-09T12:59:09.977Z,3.82
2017-05-09T13:01:36.742Z,2.32
2017-05-09T13:04:03.611Z,2.64
2017-05-09T13:06:30.373Z,3.74
2017-05-09T13:08:57.099Z,7.42
2017-05-09T13:11:23.859Z,3.28
2017-05-09T13:13:50.607Z,4.88
2017-05-09T13:16:17.381Z,5.56
2017-05-09T13:18:44.104Z,4.06
2017-05-09T13:21:10.841Z,2.78
2017-05-09T13:23:37.588Z,4.22
2017-05-09T13:26:04.364Z,2.80
2017-05-09T13:28:31.104Z,2.80
2017-05-09T13:30:57.861Z,2.86
2017-05-09T13:33:24.601Z,4.84
2017-05-09T13:35:51.378Z,2.66
2017-05-09T13:38:18.128Z,4.00
2017-05-09T13:40:44.888Z,3.24
2017-05-09T13:43:11.645Z,2.82
2017-05-09T13:45:38.441Z,3.10
2017-05-09T13:48:05.208Z,7.62
2017-05-09T13:50:31.972Z,2.96
2017-05-09T13:52:58.714Z,4.28
2017-05-09T13:55:25.488Z,3.62
2017-05-09T13:57:52.255Z,2.98
2017-05-09T14:00:19.021Z,2.98
2017-05-09T14:02:45.750Z,2.80
2017-05-09T14:05:12.464Z,3.32
2017-05-09T14:07:39.176Z,3.12
2017-05-09T14:10:05.895Z,5.50
2017-05-09T14:12:32.654Z,3.00
2017-05-09T14:14:59.374Z,4.42
2017-05-09T14:17:26.086Z,3.28
2017-05-09T14:19:52.888Z,3.16
2017-05-09T14:22:19.648Z,6.58
2017-05-09T14:24:46.366Z,2.70
2017-05-09T14:27:13.078Z,2.72
2017-05-09T14:29:39.796Z,3.36
2017-05-09T14:32:06.507Z,3.48
2017-05-09T14:34:33.226Z,2.98
2017-05-09T14:36:59.938Z,2.54
2017-05-09T14:39:26.658Z,3.38
2017-05-09T14:41:53.370Z,3.50
2017-05-09T14:44:20.090Z,4.16
2017-05-09T14:46:46.813Z,3.02
2017-05-09T14:49:13.526Z,3.62
2017-05-09T14:51:40.306Z,2.68
2017-05-09T14:54:07.025Z,2.42
2017-05-09T14:56:33.741Z,2.96
2017-05-09T14:59:00.572Z,3.16
2017-05-09T15:01:27.293Z,5.12
2017-05-09T15:03:54.002Z,2.60
2017-05-09T15:06:20.711Z,3.40
2017-05-09T15:08:47.430Z,2.44
2017-05-09T15:11:14.151Z,2.92
2017-05-09T15:13:40.884Z,3.08
2017-05-09T15:16:07.612Z,2.60
2017-05-09T15:18:34.331Z,2.30
2017-05-09T15:21:01.038Z,2.76
2017-05-09T15:23:27.764Z,2.70
2017-05-09T15:25:54.478Z,2.48
2017-05-09T15:28:21.188Z,3.42
2017-05-09T15:30:47.953Z,2.58
2017-05-09T15:33:14.661Z,3.08
2017-05-09T15:35:41.387Z,2.54
2017-05-09T15:38:08.129Z,3.20
2017-05-09T15:40:34.852Z,3.04
2017-05-09T15:43:01.580Z,5.52
2017-05-09T15:45:28.294Z,2.86
2017-05-09T15:47:55.024Z,2.80
2017-05-09T15:50:21.735Z,2.72
2017-05-09T15:52:48.458Z,2.92
2017-05-09T15:55:15.170Z,2.96
2017-05-09T15:57:41.887Z,2.70
2017-05-09T16:00:08.602Z,3.62
2017-05-09T16:02:35.309Z,3.26
2017-05-09T16:05:02.077Z,3.52
2017-05-09T16:07:28.794Z,3.78
2017-05-09T16:09:55.519Z,5.12
2017-05-09T16:12:22.250Z,3.30
2017-05-09T16:14:48.966Z,7.40
2017-05-09T16:17:15.684Z,3.36
2017-05-09T16:19:42.384Z,3.36
2017-05-09T16:22:09.091Z,3.86
2017-05-09T16:24:35.819Z,5.16
2017-05-09T16:27:02.542Z,3.46
2017-05-09T16:29:29.267Z,3.16
2017-05-09T16:31:55.985Z,3.44
2017-05-09T16:34:22.704Z,3.54
2017-05-09T16:36:49.424Z,3.22
2017-05-09T16:39:16.136Z,3.46
2017-05-09T16:41:42.845Z,4.26
2017-05-09T16:44:09.575Z,8.00
2017-05-09T16:46:36.310Z,5.52
2017-05-09T16:49:03.043Z,3.80
2017-05-09T16:51:29.756Z,3.48
2017-05-09T16:53:56.486Z,3.94
2017-05-09T16:56:23.206Z,2.94
2017-05-09T16:58:49.916Z,4.78
2017-05-09T17:01:16.640Z,5.60
2017-05-09T17:03:52.919Z,4.00
2017-05-09T17:06:29.152Z,2.90
2017-05-09T17:09:04.781Z,2.86
2017-05-09T17:11:41.156Z,3.68
2017-05-09T17:14:16.586Z,2.74
2017-05-09T17:16:52.317Z,2.94
2017-05-09T17:19:19.040Z,3.52
2017-05-09T17:21:45.768Z,4.32
2017-05-09T17:24:12.815Z,2.64
2017-05-09T17:26:39.527Z,3.14
2017-05-09T17:29:06.241Z,4.18
2017-05-09T17:31:32.950Z,4.60
2017-05-09T17:33:59.678Z,3.46
2017-05-09T17:36:26.410Z,3.70
2017-05-09T17:38:53.121Z,3.18
2017-05-09T17:41:19.876Z,7.26
2017-05-09T17:43:46.717Z,3.18
2017-05-09T17:46:13.486Z,10.20
2017-05-09T17:48:40.218Z,3.70
2017-05-09T17:51:06.939Z,6.00
2017-05-09T17:53:33.677Z,2.92
2017-05-09T17:56:00.389Z,3.70
2017-05-09T17:58:27.098Z,3.76
2017-05-09T18:00:53.813Z,3.60
2017-05-09T18:03:20.522Z,3.84
2017-05-09T18:05:47.255Z,3.26
2017-05-09T18:08:13.984Z,3.64
2017-05-09T18:10:40.694Z,3.54
2017-05-09T18:13:07.413Z,3.62
2017-05-09T18:15:34.144Z,3.42
2017-05-09T18:18:00.858Z,5.84
2017-05-09T18:20:27.578Z,4.88
2017-05-09T18:22:54.289Z,3.66
2017-05-09T18:25:21.021Z,3.20
2017-05-09T18:27:48.235Z,3.58
2017-05-09T18:30:15.065Z,4.36
2017-05-09T18:32:42.284Z,4.20
2017-05-09T18:35:09.459Z,4.68
2017-05-09T18:37:36.191Z,4.46
2017-05-09T18:40:02.928Z,4.24
2017-05-09T18:42:29.675Z,4.54
2017-05-09T18:44:56.707Z,6.80
2017-05-09T18:47:23.500Z,5.60
2017-05-09T18:49:50.235Z,5.16
2017-05-09T18:52:16.969Z,5.10
2017-05-09T18:54:43.689Z,4.80
2017-05-09T18:57:10.403Z,4.90
2017-05-09T18:59:37.116Z,4.20
2017-05-09T19:02:04.411Z,5.06
2017-05-09T19:04:31.140Z,4.92
2017-05-09T19:06:57.864Z,4.88
2017-05-09T19:09:24.572Z,5.00
2017-05-09T19:11:51.280Z,5.42
2017-05-09T19:14:17.998Z,4.40
2017-05-09T19:16:44.716Z,4.02
2017-05-09T19:19:11.445Z,4.90
2017-05-09T19:21:38.170Z,4.70
2017-05-09T19:24:04.957Z,4.78
2017-05-09T19:26:31.822Z,5.20
2017-05-09T19:28:58.536Z,5.04
2017-05-09T19:31:25.330Z,4.78
2017-05-09T19:33:52.177Z,4.44
2017-05-09T19:36:19.006Z,4.78
2017-05-09T19:38:45.778Z,4.48
2017-05-09T19:41:12.533Z,5.20
2017-05-09T19:43:39.253Z,4.60
2017-05-09T19:46:06.008Z,4.58
2017-05-09T19:48:32.801Z,6.42
2017-05-09T19:50:59.560Z,8.24
2017-05-09T19:53:26.323Z,4.14
2017-05-09T19:55:53.095Z,4.94
2017-05-09T19:58:20.070Z,5.16
2017-05-09T20:00:46.877Z,4.90
2017-05-09T20:03:13.626Z,5.80
2017-05-09T20:05:49.492Z,5.74
2017-05-09T20:08:27.599Z,6.74
2017-05-09T20:10:54.480Z,5.60
2017-05-09T20:13:21.275Z,7.38
2017-05-09T20:15:48.111Z,5.48
2017-05-09T20:18:14.907Z,6.54
2017-05-09T20:20:41.659Z,5.44
2017-05-09T20:23:08.449Z,5.30
2017-05-09T20:25:35.231Z,5.38
2017-05-09T20:28:01.992Z,5.14
2017-05-09T20:30:28.806Z,6.18
2017-05-09T20:32:55.570Z,5.30
2017-05-09T20:35:22.339Z,4.86
2017-05-09T20:37:49.108Z,5.76
2017-05-09T20:40:15.828Z,5.62
2017-05-09T20:42:42.617Z,6.64
2017-05-09T20:45:09.373Z,6.48
2017-05-09T20:47:36.165Z,6.50
2017-05-09T20:50:02.912Z,6.36
2017-05-09T20:52:29.650Z,6.74
2017-05-09T20:54:56.357Z,7.12
2017-05-09T20:57:23.069Z,6.46
2017-05-09T20:59:49.784Z,6.06
2017-05-09T21:02:16.502Z,10.04
2017-05-09T21:04:43.241Z,6.54
2017-05-09T21:07:09.953Z,8.78
2017-05-09T21:09:36.676Z,10.30
2017-05-09T21:12:03.395Z,7.70
2017-05-09T21:14:30.126Z,7.20
2017-05-09T21:16:56.856Z,6.58
2017-05-09T21:19:23.586Z,7.80
2017-05-09T21:21:50.310Z,7.02
2017-05-09T21:24:17.144Z,6.34
2017-05-09T21:26:43.936Z,6.98
2017-05-09T21:29:10.701Z,6.20
2017-05-09T21:31:37.409Z,6.43
2017-05-09T21:34:04.121Z,7.20
2017-05-09T21:36:30.833Z,7.02
2017-05-09T21:38:57.561Z,6.62
2017-05-09T21:41:24.281Z,5.72
2017-05-09T21:43:50.993Z,6.36
2017-05-09T21:46:17.759Z,5.76
2017-05-09T21:48:44.482Z,6.50
2017-05-09T21:51:11.203Z,5.76
2017-05-09T21:53:37.918Z,5.20
2017-05-09T21:56:04.633Z,5.38
2017-05-09T21:58:31.354Z,5.02
2017-05-09T22:00:58.081Z,5.14
2017-05-09T22:03:24.789Z,6.30
2017-05-09T22:05:51.510Z,5.06
2017-05-09T22:08:18.253Z,5.88
2017-05-09T22:10:44.988Z,5.90
2017-05-09T22:13:11.720Z,5.12
2017-05-09T22:15:38.435Z,5.52
2017-05-09T22:18:05.149Z,5.14
2017-05-09T22:20:31.867Z,4.80
2017-05-09T22:22:58.580Z,3.92
2017-05-09T22:25:25.315Z,5.22
2017-05-09T22:27:52.023Z,5.16
2017-05-09T22:30:18.736Z,4.34
2017-05-09T22:32:45.462Z,4.48
2017-05-09T22:35:12.178Z,4.98
2017-05-09T22:37:38.895Z,3.96
2017-05-09T22:40:05.604Z,7.12
2017-05-09T22:42:32.366Z,5.02
2017-05-09T22:44:59.078Z,4.72
2017-05-09T22:47:25.785Z,4.54
2017-05-09T22:49:52.509Z,4.36
2017-05-09T22:52:19.217Z,3.84
2017-05-09T22:54:45.926Z,4.46
2017-05-09T22:57:12.642Z,4.08
2017-05-09T22:59:39.357Z,3.50
2017-05-09T23:02:06.118Z,3.80
2017-05-09T23:04:32.833Z,4.42
2017-05-09T23:06:59.543Z,3.84
2017-05-09T23:09:26.263Z,3.76
2017-05-09T23:11:52.980Z,3.88
2017-05-09T23:14:19.698Z,3.94
2017-05-09T23:16:46.576Z,3.20
2017-05-09T23:19:13.297Z,3.20
2017-05-09T23:21:40.012Z,4.50
2017-05-09T23:24:06.774Z,4.78
2017-05-09T23:26:33.495Z,3.64
2017-05-09T23:29:00.209Z,3.78
2017-05-09T23:31:26.925Z,3.30
2017-05-09T23:33:53.639Z,3.42
2017-05-09T23:36:20.351Z,3.94
2017-05-09T23:38:47.080Z,3.90
2017-05-09T23:41:13.825Z,3.78
2017-05-09T23:43:40.559Z,4.28
2017-05-09T23:46:07.290Z,4.00
2017-05-09T23:48:33.997Z,5.74
2017-05-09T23:51:00.705Z,3.24
2017-05-09T23:53:27.476Z,3.12
2017-05-09T23:55:54.276Z,3.74
2017-05-09T23:58:20.990Z,3.74
